Time;durP1;ratioP1;P1;durP2;ratioP2;P2;SDS_P1;SDS_P2;PMS_P1;PMS_P2;Temp;Humidity;BMP_temperature;BMP_pressure;BME280_temperature;BME280_humidity;BME280_pressure;Samples;Min_cycle;Max_cycle;Signal;HPM_P1;HPM_P2
2023/12/21 00:01:58;;;;;;;0.87;0.80;;;;;;;;;;5011004;28;20175;-75
2023/12/21 00:04:24;;;;;;;0.50;0.50;;;;;;;;;;5012891;28;20178;-74
2023/12/21 00:06:49;;;;;;;0.70;0.70;;;;;;;;;;5013722;28;20179;-73
2023/12/21 00:09:14;;;;;;;0.57;0.57;;;;;;;;;;5015226;28;20193;-73
2023/12/21 00:11:39;;;;;;;1.90;0.70;;;;;;;;;;5026074;28;20179;-72
2023/12/21 00:14:04;;;;;;;0.47;0.47;;;;;;;;;;5028503;28;20199;-73
2023/12/21 00:16:30;;;;;;;0.60;0.60;;;;;;;;;;5021318;28;20179;-73
2023/12/21 00:18:55;;;;;;;0.67;0.60;;;;;;;;;;5026043;28;20173;-73
2023/12/21 00:21:20;;;;;;;0.43;0.43;;;;;;;;;;5019771;28;20176;-73
2023/12/21 00:23:45;;;;;;;0.60;0.43;;;;;;;;;;5026047;28;20178;-74
2023/12/21 00:26:10;;;;;;;0.70;0.63;;;;;;;;;;5035685;28;20182;-74
2023/12/21 00:28:36;;;;;;;0.60;0.60;;;;;;;;;;5019519;28;20270;-74
2023/12/21 00:31:02;;;;;;;0.30;0.30;;;;;;;;;;5019284;28;20186;-73
2023/12/21 00:33:27;;;;;;;0.40;0.40;;;;;;;;;;5023428;28;20201;-73
2023/12/21 00:35:53;;;;;;;0.60;0.60;;;;;;;;;;5030839;28;20187;-74
2023/12/21 00:38:18;;;;;;;1.17;0.60;;;;;;;;;;5021263;28;20306;-73
2023/12/21 00:40:43;;;;;;;0.40;0.40;;;;;;;;;;5024363;28;20342;-73
2023/12/21 00:43:08;;;;;;;0.50;0.50;;;;;;;;;;5037584;28;20194;-74
2023/12/21 00:45:33;;;;;;;0.60;0.60;;;;;;;;;;5015389;28;20171;-74
2023/12/21 00:47:58;;;;;;;0.43;0.43;;;;;;;;;;5016962;28;20187;-73
2023/12/21 00:50:24;;;;;;;0.83;0.63;;;;;;;;;;5022559;28;20330;-74
2023/12/21 00:52:49;;;;;;;0.77;0.40;;;;;;;;;;5031158;28;20239;-74
2023/12/21 00:55:14;;;;;;;0.73;0.50;;;;;;;;;;5033236;28;20206;-73
2023/12/21 00:57:39;;;;;;;0.50;0.50;;;;;;;;;;5037131;28;20177;-74
2023/12/21 01:00:05;;;;;;;0.50;0.50;;;;;;;;;;5017434;28;20180;-74
2023/12/21 01:02:30;;;;;;;0.60;0.60;;;;;;;;;;5016401;28;20204;-74
2023/12/21 01:04:55;;;;;;;0.60;0.60;;;;;;;;;;5033078;28;20187;-74
2023/12/21 01:07:20;;;;;;;0.60;0.60;;;;;;;;;;5015198;28;20273;-74
2023/12/21 01:09:46;;;;;;;0.40;0.40;;;;;;;;;;5016690;28;20286;-73
2023/12/21 01:12:11;;;;;;;1.23;0.33;;;;;;;;;;5031058;28;20178;-74
2023/12/21 01:14:36;;;;;;;0.50;0.50;;;;;;;;;;5030203;28;20419;-74
2023/12/21 01:17:02;;;;;;;0.30;0.30;;;;;;;;;;5019502;28;20171;-75
2023/12/21 01:19:27;;;;;;;0.60;0.60;;;;;;;;;;5022259;28;20193;-73
2023/12/21 01:21:52;;;;;;;0.40;0.40;;;;;;;;;;5023725;28;20241;-74
2023/12/21 01:24:18;;;;;;;0.50;0.50;;;;;;;;;;5021062;28;20245;-73
2023/12/21 01:26:43;;;;;;;0.40;0.40;;;;;;;;;;5020590;28;20181;-74
2023/12/21 01:29:08;;;;;;;0.50;0.50;;;;;;;;;;5019887;28;20456;-74
2023/12/21 01:31:33;;;;;;;0.30;0.30;;;;;;;;;;5024978;28;20179;-74
2023/12/21 01:33:59;;;;;;;0.50;0.50;;;;;;;;;;5010629;28;20195;-73
2023/12/21 01:36:26;;;;;;;0.43;0.43;;;;;;;;;;5016615;28;20181;-74
2023/12/21 01:38:51;;;;;;;0.77;0.53;;;;;;;;;;5021350;28;20218;-74
2023/12/21 01:41:16;;;;;;;0.77;0.60;;;;;;;;;;5020786;28;20309;-73
2023/12/21 01:43:42;;;;;;;0.30;0.30;;;;;;;;;;5032275;28;20198;-74
2023/12/21 01:46:07;;;;;;;0.50;0.50;;;;;;;;;;5012364;28;20171;-73
2023/12/21 01:48:32;;;;;;;0.40;0.40;;;;;;;;;;5029213;28;20167;-73
2023/12/21 01:50:58;;;;;;;0.40;0.40;;;;;;;;;;5036163;28;20179;-73
2023/12/21 01:53:24;;;;;;;0.40;0.40;;;;;;;;;;5012705;28;20304;-74
2023/12/21 01:55:49;;;;;;;0.50;0.50;;;;;;;;;;5015823;28;20186;-73
2023/12/21 01:58:15;;;;;;;0.37;0.37;;;;;;;;;;5027641;28;20600;-73
2023/12/21 02:00:40;;;;;;;0.20;0.20;;;;;;;;;;5012019;28;20184;-74
2023/12/21 02:03:06;;;;;;;0.37;0.37;;;;;;;;;;5027654;28;20258;-73
2023/12/21 02:05:31;;;;;;;0.73;0.20;;;;;;;;;;5030982;28;20217;-73
2023/12/21 02:07:57;;;;;;;0.50;0.40;;;;;;;;;;5017435;28;20179;-74
2023/12/21 02:10:22;;;;;;;0.60;0.60;;;;;;;;;;5011432;28;20412;-74
2023/12/21 02:12:47;;;;;;;0.70;0.70;;;;;;;;;;5013199;28;20178;-74
2023/12/21 02:15:13;;;;;;;1.70;0.80;;;;;;;;;;5016482;28;20195;-74
2023/12/21 02:17:39;;;;;;;1.07;0.70;;;;;;;;;;5032399;28;20167;-73
2023/12/21 02:20:05;;;;;;;0.60;0.60;;;;;;;;;;5019182;28;20271;-75
2023/12/21 02:22:31;;;;;;;0.33;0.33;;;;;;;;;;5031825;28;20181;-74
2023/12/21 02:24:57;;;;;;;0.30;0.30;;;;;;;;;;5017531;28;20238;-74
2023/12/21 02:27:22;;;;;;;0.30;0.30;;;;;;;;;;5013270;28;20247;-74
2023/12/21 02:29:47;;;;;;;0.57;0.57;;;;;;;;;;5017821;28;20202;-73
2023/12/21 02:32:12;;;;;;;0.50;0.50;;;;;;;;;;5017504;28;20182;-74
2023/12/21 02:34:37;;;;;;;0.50;0.50;;;;;;;;;;5028932;28;20229;-73
2023/12/21 02:37:03;;;;;;;0.40;0.33;;;;;;;;;;5020042;28;20201;-74
2023/12/21 02:39:28;;;;;;;0.30;0.30;;;;;;;;;;5011889;28;20227;-73
2023/12/21 02:41:54;;;;;;;0.67;0.30;;;;;;;;;;5043434;28;20170;-74
2023/12/21 02:44:19;;;;;;;0.33;0.33;;;;;;;;;;5028451;28;20332;-74
2023/12/21 02:46:44;;;;;;;0.30;0.30;;;;;;;;;;5016026;28;20189;-73
2023/12/21 02:49:09;;;;;;;0.30;0.30;;;;;;;;;;5029105;28;20386;-74
2023/12/21 02:51:34;;;;;;;0.53;0.37;;;;;;;;;;5019838;28;20195;-73
2023/12/21 02:54:00;;;;;;;0.43;0.30;;;;;;;;;;5011162;28;20206;-73
2023/12/21 02:56:25;;;;;;;0.30;0.30;;;;;;;;;;5032639;28;20183;-74
2023/12/21 02:58:50;;;;;;;0.20;0.20;;;;;;;;;;5030423;28;20259;-73
2023/12/21 03:01:15;;;;;;;0.40;0.40;;;;;;;;;;5027931;28;20190;-73
2023/12/21 03:03:40;;;;;;;0.60;0.47;;;;;;;;;;5016907;28;20472;-73
2023/12/21 03:06:06;;;;;;;0.20;0.20;;;;;;;;;;5029444;28;20251;-74
2023/12/21 03:08:31;;;;;;;0.30;0.30;;;;;;;;;;5014520;28;20185;-75
2023/12/21 03:10:56;;;;;;;0.97;0.20;;;;;;;;;;5027105;28;20198;-73
2023/12/21 03:13:23;;;;;;;0.40;0.40;;;;;;;;;;5007943;28;20314;-74
2023/12/21 03:15:49;;;;;;;0.20;0.20;;;;;;;;;;5011853;28;20261;-74
2023/12/21 03:18:14;;;;;;;0.23;0.23;;;;;;;;;;5017542;28;20175;-73
2023/12/21 03:20:40;;;;;;;0.63;0.40;;;;;;;;;;5018480;28;20182;-74
2023/12/21 03:23:05;;;;;;;1.07;0.20;;;;;;;;;;5032813;28;20179;-74
2023/12/21 03:25:30;;;;;;;0.37;0.33;;;;;;;;;;5026785;28;20185;-74
2023/12/21 03:27:55;;;;;;;0.40;0.40;;;;;;;;;;5033794;28;20265;-73
2023/12/21 03:30:21;;;;;;;0.23;0.23;;;;;;;;;;5019916;28;20482;-73
2023/12/21 03:32:46;;;;;;;0.10;0.10;;;;;;;;;;5014128;28;20235;-73
2023/12/21 03:35:12;;;;;;;0.20;0.20;;;;;;;;;;5037091;28;20202;-74
2023/12/21 03:37:38;;;;;;;0.20;0.20;;;;;;;;;;5025687;28;20205;-73
2023/12/21 03:40:03;;;;;;;0.27;0.27;;;;;;;;;;5030450;28;20221;-73
2023/12/21 03:42:28;;;;;;;0.30;0.30;;;;;;;;;;5027294;28;20195;-74
2023/12/21 03:44:53;;;;;;;0.27;0.27;;;;;;;;;;5029445;28;20179;-74
2023/12/21 03:47:19;;;;;;;0.20;0.20;;;;;;;;;;5024411;28;20180;-74
2023/12/21 03:49:44;;;;;;;0.20;0.20;;;;;;;;;;5020442;28;20166;-73
2023/12/21 03:52:09;;;;;;;0.20;0.20;;;;;;;;;;5013357;28;20252;-74
2023/12/21 03:54:34;;;;;;;0.10;0.10;;;;;;;;;;5013685;28;20203;-74
2023/12/21 03:57:00;;;;;;;0.43;0.20;;;;;;;;;;5025960;28;20194;-74
2023/12/21 03:59:25;;;;;;;0.53;0.20;;;;;;;;;;5032542;28;20177;-73
2023/12/21 04:01:51;;;;;;;0.20;0.20;;;;;;;;;;5010778;28;20265;-74
2023/12/21 04:04:16;;;;;;;0.20;0.20;;;;;;;;;;5031425;28;20179;-74
2023/12/21 04:06:41;;;;;;;0.40;0.40;;;;;;;;;;5030740;28;20275;-74
2023/12/21 04:09:07;;;;;;;0.63;0.63;;;;;;;;;;5029080;28;20206;-74
2023/12/21 04:11:32;;;;;;;2.03;0.97;;;;;;;;;;5009369;28;20187;-73
2023/12/21 04:13:57;;;;;;;0.20;0.20;;;;;;;;;;5033578;28;20252;-73
2023/12/21 04:16:22;;;;;;;1.57;0.40;;;;;;;;;;5016241;28;20310;-74
2023/12/21 04:18:47;;;;;;;0.30;0.30;;;;;;;;;;5021798;28;20180;-74
2023/12/21 04:21:13;;;;;;;0.10;0.10;;;;;;;;;;5028403;28;20230;-74
2023/12/21 04:23:39;;;;;;;0.30;0.30;;;;;;;;;;5012934;28;20174;-74
2023/12/21 04:26:04;;;;;;;0.20;0.20;;;;;;;;;;5033952;28;20195;-74
2023/12/21 04:28:29;;;;;;;0.20;0.20;;;;;;;;;;5014655;28;20191;-73
2023/12/21 04:30:54;;;;;;;0.37;0.30;;;;;;;;;;5033926;28;20188;-73
2023/12/21 04:33:19;;;;;;;0.30;0.30;;;;;;;;;;5027576;28;20238;-73
2023/12/21 04:35:45;;;;;;;0.37;0.37;;;;;;;;;;5027614;28;20176;-74
2023/12/21 04:38:11;;;;;;;0.50;0.50;;;;;;;;;;5009043;28;20236;-74
2023/12/21 04:40:36;;;;;;;0.83;0.67;;;;;;;;;;5038422;28;20204;-74
2023/12/21 04:43:01;;;;;;;0.30;0.30;;;;;;;;;;5032327;28;20187;-74
2023/12/21 04:45:26;;;;;;;0.20;0.20;;;;;;;;;;5008380;28;20214;-74
2023/12/21 04:47:52;;;;;;;0.27;0.27;;;;;;;;;;5009890;28;20179;-75
2023/12/21 04:50:18;;;;;;;0.60;0.60;;;;;;;;;;5032944;28;20174;-74
2023/12/21 04:52:43;;;;;;;0.40;0.40;;;;;;;;;;5015754;28;20332;-74
2023/12/21 04:55:08;;;;;;;0.23;0.23;;;;;;;;;;5017209;28;20203;-74
2023/12/21 04:57:33;;;;;;;0.27;0.27;;;;;;;;;;5019210;28;20180;-73
2023/12/21 04:59:59;;;;;;;0.10;0.10;;;;;;;;;;5016725;28;20265;-74
2023/12/21 05:02:24;;;;;;;0.27;0.27;;;;;;;;;;5014493;28;20199;-74
2023/12/21 05:04:49;;;;;;;0.20;0.20;;;;;;;;;;5017899;28;20176;-74
2023/12/21 05:07:14;;;;;;;0.40;0.40;;;;;;;;;;5030069;28;20205;-73
2023/12/21 05:09:39;;;;;;;0.23;0.23;;;;;;;;;;5032313;28;20209;-74
2023/12/21 05:12:05;;;;;;;0.30;0.30;;;;;;;;;;5013965;28;20181;-73
2023/12/21 05:14:30;;;;;;;0.20;0.20;;;;;;;;;;5018014;28;20210;-74
2023/12/21 05:16:55;;;;;;;0.30;0.30;;;;;;;;;;5033190;28;20184;-74
2023/12/21 05:19:20;;;;;;;0.23;0.23;;;;;;;;;;5016779;28;20179;-74
2023/12/21 05:21:46;;;;;;;0.37;0.37;;;;;;;;;;5023416;28;20208;-74
2023/12/21 05:24:11;;;;;;;0.40;0.40;;;;;;;;;;5032740;28;20260;-74
2023/12/21 05:26:36;;;;;;;0.40;0.40;;;;;;;;;;5030254;28;20183;-74
2023/12/21 05:29:02;;;;;;;0.10;0.10;;;;;;;;;;5014511;28;20171;-73
2023/12/21 05:31:27;;;;;;;1.57;1.23;;;;;;;;;;5022818;28;20281;-73
2023/12/21 05:33:52;;;;;;;0.20;0.20;;;;;;;;;;5021103;28;20252;-74
2023/12/21 05:36:21;;;;;;;0.60;0.60;;;;;;;;;;5037735;28;20182;-74
2023/12/21 05:38:47;;;;;;;0.10;0.10;;;;;;;;;;5014637;28;20272;-74
2023/12/21 05:41:12;;;;;;;0.20;0.20;;;;;;;;;;5011890;28;20202;-75
2023/12/21 05:43:37;;;;;;;0.40;0.40;;;;;;;;;;5018167;28;20184;-74
2023/12/21 05:46:04;;;;;;;0.67;0.60;;;;;;;;;;5012239;28;20272;-74
2023/12/21 05:48:29;;;;;;;1.13;0.40;;;;;;;;;;5037522;28;20193;-74
2023/12/21 05:50:54;;;;;;;0.20;0.20;;;;;;;;;;5017483;28;20188;-73
2023/12/21 05:53:19;;;;;;;0.60;0.60;;;;;;;;;;5015914;28;20192;-73
2023/12/21 05:55:44;;;;;;;1.53;1.23;;;;;;;;;;5011609;28;20175;-74
2023/12/21 05:58:09;;;;;;;0.93;0.83;;;;;;;;;;5013448;28;20202;-74
2023/12/21 06:00:37;;;;;;;0.63;0.53;;;;;;;;;;5013508;28;20188;-74
2023/12/21 06:03:02;;;;;;;0.30;0.30;;;;;;;;;;5033091;28;20253;-73
2023/12/21 06:05:27;;;;;;;0.30;0.30;;;;;;;;;;5032405;28;20265;-73
2023/12/21 06:07:52;;;;;;;0.53;0.20;;;;;;;;;;5021059;28;20173;-73
2023/12/21 06:10:18;;;;;;;0.23;0.23;;;;;;;;;;5011902;28;20275;-73
2023/12/21 06:12:43;;;;;;;0.43;0.43;;;;;;;;;;5021223;28;20176;-74
2023/12/21 06:15:08;;;;;;;0.20;0.20;;;;;;;;;;5019847;28;20246;-74
2023/12/21 06:17:33;;;;;;;0.27;0.27;;;;;;;;;;5019782;28;20219;-74
2023/12/21 06:19:59;;;;;;;0.20;0.20;;;;;;;;;;5036600;28;20173;-74
2023/12/21 06:22:24;;;;;;;0.53;0.50;;;;;;;;;;5020136;28;20178;-73
2023/12/21 06:24:49;;;;;;;1.17;0.80;;;;;;;;;;5019441;28;20254;-74
2023/12/21 06:27:15;;;;;;;0.20;0.20;;;;;;;;;;5032371;28;20170;-74
2023/12/21 06:29:40;;;;;;;0.33;0.33;;;;;;;;;;5015467;28;20284;-74
2023/12/21 06:32:06;;;;;;;0.87;0.87;;;;;;;;;;5029542;28;20489;-74
2023/12/21 06:34:31;;;;;;;0.40;0.40;;;;;;;;;;5010053;28;20407;-73
2023/12/21 06:36:57;;;;;;;0.70;0.70;;;;;;;;;;5011152;28;20203;-74
2023/12/21 06:39:22;;;;;;;0.20;0.20;;;;;;;;;;5027519;28;20219;-73
2023/12/21 06:41:47;;;;;;;0.50;0.50;;;;;;;;;;5008971;28;20175;-73
2023/12/21 06:44:13;;;;;;;0.37;0.37;;;;;;;;;;5030247;28;20186;-74
2023/12/21 06:46:38;;;;;;;0.70;0.70;;;;;;;;;;5012785;28;20222;-74
2023/12/21 06:49:03;;;;;;;0.40;0.40;;;;;;;;;;5009868;28;20214;-74
2023/12/21 06:51:28;;;;;;;0.30;0.30;;;;;;;;;;5011137;28;20189;-73
2023/12/21 06:53:53;;;;;;;0.57;0.57;;;;;;;;;;5030381;28;20204;-74
2023/12/21 06:56:19;;;;;;;0.40;0.40;;;;;;;;;;5037123;28;20227;-73
2023/12/21 06:58:44;;;;;;;0.70;0.70;;;;;;;;;;5036188;28;20173;-73
2023/12/21 07:01:10;;;;;;;1.23;0.70;;;;;;;;;;5038682;28;20170;-74
2023/12/21 07:03:35;;;;;;;0.30;0.30;;;;;;;;;;5017073;28;20197;-73
2023/12/21 07:06:00;;;;;;;0.47;0.47;;;;;;;;;;5018801;28;20182;-73
2023/12/21 07:08:25;;;;;;;0.50;0.50;;;;;;;;;;5012497;28;20179;-75
2023/12/21 07:10:53;;;;;;;0.80;0.80;;;;;;;;;;5010522;28;20512;-80
2023/12/21 07:13:18;;;;;;;0.57;0.53;;;;;;;;;;5022262;28;20212;-77
2023/12/21 07:15:43;;;;;;;0.20;0.20;;;;;;;;;;5015639;28;20210;-78
2023/12/21 07:18:08;;;;;;;2.73;2.00;;;;;;;;;;5038247;28;20223;-78
2023/12/21 07:20:33;;;;;;;3.07;2.77;;;;;;;;;;5014007;28;20209;-78
2023/12/21 07:22:59;;;;;;;0.77;0.77;;;;;;;;;;5034669;28;20173;-78
2023/12/21 07:25:24;;;;;;;0.70;0.70;;;;;;;;;;5012867;28;20414;-79
2023/12/21 07:27:49;;;;;;;0.63;0.63;;;;;;;;;;5021326;28;20175;-79
2023/12/21 07:30:15;;;;;;;0.47;0.47;;;;;;;;;;5009413;28;20184;-77
2023/12/21 07:32:40;;;;;;;1.17;1.13;;;;;;;;;;5036259;28;20178;-77
2023/12/21 07:35:06;;;;;;;0.70;0.70;;;;;;;;;;5028111;28;20193;-78
2023/12/21 07:37:31;;;;;;;1.37;1.27;;;;;;;;;;5016835;28;20565;-78
2023/12/21 07:39:56;;;;;;;3.10;2.00;;;;;;;;;;5020824;28;20226;-77
2023/12/21 07:42:21;;;;;;;3.60;3.10;;;;;;;;;;5030460;28;20240;-79
2023/12/21 07:44:47;;;;;;;4.23;3.43;;;;;;;;;;5031611;28;20312;-78
2023/12/21 07:47:12;;;;;;;2.73;1.50;;;;;;;;;;5031064;28;20185;-78
2023/12/21 07:49:37;;;;;;;2.43;2.23;;;;;;;;;;5022684;28;20185;-79
2023/12/21 07:52:02;;;;;;;0.47;0.47;;;;;;;;;;5026020;28;20208;-78
2023/12/21 07:54:27;;;;;;;1.67;1.57;;;;;;;;;;5019695;28;20197;-78
2023/12/21 07:56:53;;;;;;;1.90;1.67;;;;;;;;;;5038811;28;20244;-77
2023/12/21 07:59:19;;;;;;;3.60;3.23;;;;;;;;;;5013131;28;20168;-78
2023/12/21 08:01:45;;;;;;;1.50;1.40;;;;;;;;;;5036101;28;20173;-78
2023/12/21 08:04:11;;;;;;;4.37;2.70;;;;;;;;;;5016974;28;20179;-79
2023/12/21 08:06:36;;;;;;;2.30;2.10;;;;;;;;;;5019522;28;20453;-78
2023/12/21 08:09:01;;;;;;;1.93;1.77;;;;;;;;;;5031753;28;20181;-78
2023/12/21 08:11:26;;;;;;;1.43;1.33;;;;;;;;;;5032354;28;20167;-78
2023/12/21 08:13:52;;;;;;;2.60;2.40;;;;;;;;;;5010434;28;20194;-79
2023/12/21 08:16:17;;;;;;;2.40;2.10;;;;;;;;;;5026688;28;20315;-76
2023/12/21 08:18:44;;;;;;;1.57;1.33;;;;;;;;;;5022212;28;20174;-79
2023/12/21 08:21:09;;;;;;;2.30;2.10;;;;;;;;;;5021133;28;20251;-78
2023/12/21 08:23:34;;;;;;;2.63;2.43;;;;;;;;;;5037229;28;20224;-78
2023/12/21 08:25:59;;;;;;;1.70;1.50;;;;;;;;;;5020487;28;20275;-77
2023/12/21 08:28:29;;;;;;;2.80;2.60;;;;;;;;;;5031585;28;20179;-78
2023/12/21 08:30:54;;;;;;;1.47;1.30;;;;;;;;;;5038649;28;20255;-77
2023/12/21 08:33:19;;;;;;;2.37;1.93;;;;;;;;;;5022347;28;20322;-78
2023/12/21 08:35:45;;;;;;;1.80;1.70;;;;;;;;;;5026838;28;20258;-78
2023/12/21 08:38:11;;;;;;;0.90;0.90;;;;;;;;;;5038283;28;20226;-77
2023/12/21 08:40:36;;;;;;;0.70;0.70;;;;;;;;;;5039201;28;20230;-76
2023/12/21 08:43:02;;;;;;;0.50;0.50;;;;;;;;;;5037272;28;20170;-78
2023/12/21 08:45:27;;;;;;;1.77;1.10;;;;;;;;;;5021820;28;20183;-78
2023/12/21 08:47:54;;;;;;;1.10;1.00;;;;;;;;;;5013286;28;20490;-78
2023/12/21 08:50:19;;;;;;;2.10;1.90;;;;;;;;;;5013246;28;20221;-78
2023/12/21 08:52:44;;;;;;;0.60;0.60;;;;;;;;;;5018239;28;20196;-77
2023/12/21 08:55:10;;;;;;;0.40;0.40;;;;;;;;;;5037143;28;20208;-77
2023/12/21 08:57:36;;;;;;;1.70;1.40;;;;;;;;;;5034605;28;20189;-77
2023/12/21 09:00:05;;;;;;;0.37;0.37;;;;;;;;;;5032588;28;20170;-78
2023/12/21 09:02:31;;;;;;;0.30;0.30;;;;;;;;;;5034427;28;20191;-78
2023/12/21 09:04:56;;;;;;;0.30;0.30;;;;;;;;;;5039910;28;20218;-78
2023/12/21 09:07:24;;;;;;;0.73;0.73;;;;;;;;;;5018539;28;20269;-78
2023/12/21 09:09:49;;;;;;;0.30;0.30;;;;;;;;;;5022082;28;20492;-77
2023/12/21 09:12:14;;;;;;;0.70;0.70;;;;;;;;;;5015870;28;20181;-78
2023/12/21 09:14:40;;;;;;;0.30;0.30;;;;;;;;;;5019941;28;20288;-77
2023/12/21 09:17:05;;;;;;;0.10;0.10;;;;;;;;;;5013320;28;20213;-79
2023/12/21 09:19:32;;;;;;;0.60;0.60;;;;;;;;;;5021212;28;20180;-78
2023/12/21 09:21:58;;;;;;;0.67;0.67;;;;;;;;;;5039256;28;20222;-78
2023/12/21 09:24:23;;;;;;;1.50;1.00;;;;;;;;;;5036185;28;20170;-78
2023/12/21 09:26:49;;;;;;;0.70;0.70;;;;;;;;;;5038480;28;20192;-78
2023/12/21 09:29:14;;;;;;;1.20;0.93;;;;;;;;;;5018234;28;20172;-78
2023/12/21 09:31:39;;;;;;;0.43;0.43;;;;;;;;;;5036396;28;20184;-78
2023/12/21 09:34:07;;;;;;;0.50;0.50;;;;;;;;;;5019161;28;20235;-77
2023/12/21 09:36:32;;;;;;;1.17;1.00;;;;;;;;;;5034248;28;20349;-78
2023/12/21 09:38:58;;;;;;;1.90;1.10;;;;;;;;;;5017972;28;20229;-78
2023/12/21 09:41:23;;;;;;;1.93;1.27;;;;;;;;;;5012293;28;20177;-78
2023/12/21 09:43:49;;;;;;;1.27;1.07;;;;;;;;;;5013530;28;20191;-77
2023/12/21 09:46:15;;;;;;;0.50;0.50;;;;;;;;;;5041120;28;20171;-79
2023/12/21 09:48:42;;;;;;;2.23;1.50;;;;;;;;;;5007548;28;20272;-78
2023/12/21 09:51:08;;;;;;;1.33;1.23;;;;;;;;;;5024635;28;20236;-78
2023/12/21 09:53:34;;;;;;;0.40;0.40;;;;;;;;;;5024764;28;20223;-78
2023/12/21 09:56:00;;;;;;;1.07;1.00;;;;;;;;;;5022266;28;20179;-78
2023/12/21 09:58:25;;;;;;;0.40;0.40;;;;;;;;;;5035005;28;20231;-77
2023/12/21 10:00:50;;;;;;;1.43;1.00;;;;;;;;;;5013014;28;20272;-78
2023/12/21 10:03:16;;;;;;;0.60;0.60;;;;;;;;;;5019984;28;20194;-78
2023/12/21 10:05:41;;;;;;;0.57;0.57;;;;;;;;;;5023525;28;20213;-78
2023/12/21 10:08:07;;;;;;;1.17;0.83;;;;;;;;;;5029763;28;20200;-78
2023/12/21 10:10:32;;;;;;;0.83;0.83;;;;;;;;;;5018918;28;20213;-78
2023/12/21 10:12:58;;;;;;;1.03;0.20;;;;;;;;;;5021162;28;20172;-76
2023/12/21 10:15:23;;;;;;;0.50;0.50;;;;;;;;;;5035900;28;20188;-77
2023/12/21 10:17:49;;;;;;;1.70;0.87;;;;;;;;;;5016821;28;20190;-78
2023/12/21 10:20:14;;;;;;;0.50;0.50;;;;;;;;;;5021408;28;20206;-78
2023/12/21 10:22:40;;;;;;;0.47;0.47;;;;;;;;;;5031797;28;20177;-79
2023/12/21 10:25:07;;;;;;;0.40;0.40;;;;;;;;;;5016394;28;20273;-78
2023/12/21 10:27:33;;;;;;;0.30;0.30;;;;;;;;;;5017666;28;20218;-78
2023/12/21 10:29:58;;;;;;;0.40;0.40;;;;;;;;;;5019280;28;20214;-78
2023/12/21 10:32:24;;;;;;;0.40;0.40;;;;;;;;;;5017162;28;20171;-78
2023/12/21 10:34:49;;;;;;;1.53;1.00;;;;;;;;;;5019939;28;20262;-78
2023/12/21 10:37:14;;;;;;;0.93;0.90;;;;;;;;;;5015381;28;20190;-78
2023/12/21 10:39:40;;;;;;;0.57;0.57;;;;;;;;;;5025856;28;20246;-78
2023/12/21 10:42:06;;;;;;;0.57;0.57;;;;;;;;;;5031643;28;20166;-78
2023/12/21 10:44:31;;;;;;;0.73;0.73;;;;;;;;;;5004243;28;20218;-78
2023/12/21 10:46:56;;;;;;;1.00;1.00;;;;;;;;;;5025508;28;20185;-76
2023/12/21 10:49:21;;;;;;;0.80;0.80;;;;;;;;;;5020234;28;20174;-78
2023/12/21 10:51:47;;;;;;;0.67;0.67;;;;;;;;;;5024947;28;20178;-78
2023/12/21 10:54:14;;;;;;;0.60;0.60;;;;;;;;;;5036165;28;20199;-78
2023/12/21 10:56:42;;;;;;;1.10;1.00;;;;;;;;;;5022327;28;20261;-77
2023/12/21 10:59:08;;;;;;;0.70;0.70;;;;;;;;;;5016896;28;20178;-78
2023/12/21 11:01:33;;;;;;;0.50;0.50;;;;;;;;;;5019013;28;20185;-78
2023/12/21 11:03:59;;;;;;;0.30;0.30;;;;;;;;;;5038358;28;20207;-77
2023/12/21 11:06:25;;;;;;;0.50;0.50;;;;;;;;;;5017343;28;20178;-78
2023/12/21 11:08:51;;;;;;;0.67;0.67;;;;;;;;;;5014936;28;20492;-77
2023/12/21 11:11:19;;;;;;;1.07;0.20;;;;;;;;;;5018588;28;20174;-76
2023/12/21 11:13:46;;;;;;;0.50;0.50;;;;;;;;;;5015954;28;20202;-78
2023/12/21 11:16:13;;;;;;;0.30;0.30;;;;;;;;;;5035804;28;20193;-78
2023/12/21 11:18:39;;;;;;;0.53;0.53;;;;;;;;;;5018008;28;20216;-78
2023/12/21 11:21:05;;;;;;;0.33;0.33;;;;;;;;;;5035696;28;20229;-78
2023/12/21 11:23:31;;;;;;;0.30;0.30;;;;;;;;;;5027944;28;20521;-78
2023/12/21 11:25:57;;;;;;;0.30;0.30;;;;;;;;;;5033348;28;20271;-77
2023/12/21 11:28:32;;;;;;;0.60;0.60;;;;;;;;;;5018242;28;20258;-78
2023/12/21 11:30:57;;;;;;;0.50;0.50;;;;;;;;;;5024068;28;20193;-77
2023/12/21 11:33:29;;;;;;;0.30;0.30;;;;;;;;;;5033700;28;20173;-78
2023/12/21 11:35:55;;;;;;;0.20;0.20;;;;;;;;;;5026880;28;20178;-78
2023/12/21 11:38:24;;;;;;;0.43;0.43;;;;;;;;;;5010854;28;20233;-78
2023/12/21 11:40:49;;;;;;;0.40;0.40;;;;;;;;;;5030309;28;20178;-77
2023/12/21 11:43:21;;;;;;;0.10;0.10;;;;;;;;;;5009608;28;20180;-78
2023/12/21 11:45:47;;;;;;;0.80;0.30;;;;;;;;;;5036286;28;20180;-78
2023/12/21 11:48:16;;;;;;;0.80;0.80;;;;;;;;;;5040616;28;20185;-79
2023/12/21 11:50:43;;;;;;;0.67;0.60;;;;;;;;;;5036622;28;20255;-78
2023/12/21 11:53:09;;;;;;;0.20;0.20;;;;;;;;;;5041878;28;20669;-77
2023/12/21 11:55:42;;;;;;;0.60;0.60;;;;;;;;;;5028009;28;20206;-78
2023/12/21 11:58:07;;;;;;;0.60;0.60;;;;;;;;;;5020186;28;20180;-78
2023/12/21 12:00:33;;;;;;;0.40;0.40;;;;;;;;;;5016876;28;20181;-79
2023/12/21 12:02:59;;;;;;;1.03;0.83;;;;;;;;;;5034639;28;20181;-78
2023/12/21 12:05:24;;;;;;;0.40;0.40;;;;;;;;;;5037263;28;20303;-78
2023/12/21 12:07:49;;;;;;;0.67;0.67;;;;;;;;;;5017272;28;20182;-78
2023/12/21 12:10:17;;;;;;;0.47;0.40;;;;;;;;;;5034394;28;20184;-78
2023/12/21 12:12:43;;;;;;;0.20;0.20;;;;;;;;;;5010958;28;20264;-79
2023/12/21 12:15:08;;;;;;;1.13;0.30;;;;;;;;;;5016765;28;20205;-79
2023/12/21 12:17:39;;;;;;;0.43;0.43;;;;;;;;;;5021413;28;20196;-79
2023/12/21 12:20:04;;;;;;;0.33;0.30;;;;;;;;;;5019083;28;20209;-78
2023/12/21 12:22:30;;;;;;;0.27;0.27;;;;;;;;;;5019147;28;20205;-76
2023/12/21 12:24:55;;;;;;;0.30;0.30;;;;;;;;;;5031878;28;20216;-78
2023/12/21 12:27:20;;;;;;;0.20;0.20;;;;;;;;;;5016840;28;20220;-78
2023/12/21 12:29:46;;;;;;;0.23;0.23;;;;;;;;;;5029655;28;20183;-78
2023/12/21 12:32:11;;;;;;;0.30;0.30;;;;;;;;;;5020675;28;20174;-78
2023/12/21 12:34:37;;;;;;;0.40;0.40;;;;;;;;;;5030193;28;20244;-77
2023/12/21 12:37:02;;;;;;;0.40;0.40;;;;;;;;;;5018653;28;20195;-78
2023/12/21 12:39:28;;;;;;;1.40;0.73;;;;;;;;;;5017031;28;20220;-79
2023/12/21 12:41:57;;;;;;;2.57;2.37;;;;;;;;;;5034209;28;20180;-78
2023/12/21 12:44:22;;;;;;;1.80;1.57;;;;;;;;;;5011091;28;20200;-77
2023/12/21 12:46:48;;;;;;;9.70;7.67;;;;;;;;;;5025105;28;20181;-78
2023/12/21 12:49:13;;;;;;;7.37;5.57;;;;;;;;;;5035872;28;20178;-78
2023/12/21 12:51:42;;;;;;;0.57;0.57;;;;;;;;;;5041423;28;20283;-78
2023/12/21 12:54:07;;;;;;;0.40;0.40;;;;;;;;;;5019490;28;20335;-78
2023/12/21 12:56:32;;;;;;;1.37;1.27;;;;;;;;;;5034177;28;20209;-78
2023/12/21 12:58:57;;;;;;;3.07;2.77;;;;;;;;;;5017518;28;20177;-79
2023/12/21 13:01:23;;;;;;;1.40;1.30;;;;;;;;;;5032363;28;20185;-77
2023/12/21 13:03:48;;;;;;;1.30;1.20;;;;;;;;;;5035884;28;20180;-78
2023/12/21 13:06:13;;;;;;;2.00;1.80;;;;;;;;;;5035592;28;20185;-79
2023/12/21 13:08:38;;;;;;;0.47;0.47;;;;;;;;;;5015876;28;20182;-78
2023/12/21 13:11:04;;;;;;;0.47;0.47;;;;;;;;;;5015997;28;20176;-79
2023/12/21 13:13:29;;;;;;;3.00;2.40;;;;;;;;;;5033088;28;20182;-77
2023/12/21 13:15:54;;;;;;;1.17;1.07;;;;;;;;;;5020194;28;20198;-78
2023/12/21 13:18:19;;;;;;;2.07;1.60;;;;;;;;;;5031333;28;20248;-78
2023/12/21 13:20:45;;;;;;;0.60;0.60;;;;;;;;;;5022476;28;20178;-78
2023/12/21 13:23:13;;;;;;;1.40;1.30;;;;;;;;;;5039239;28;20227;-78
2023/12/21 13:25:38;;;;;;;3.47;3.17;;;;;;;;;;5036190;28;20260;-78
2023/12/21 13:28:03;;;;;;;3.37;2.30;;;;;;;;;;5021735;28;20212;-78
2023/12/21 13:30:28;;;;;;;1.73;1.60;;;;;;;;;;5016037;28;20185;-76
2023/12/21 13:32:55;;;;;;;2.33;2.13;;;;;;;;;;5018503;28;20176;-78
2023/12/21 13:35:20;;;;;;;2.33;2.13;;;;;;;;;;5015020;28;20190;-75
2023/12/21 13:37:46;;;;;;;1.00;0.93;;;;;;;;;;5026286;28;20200;-76
2023/12/21 13:40:11;;;;;;;3.13;2.90;;;;;;;;;;5024764;28;20324;-80
2023/12/21 13:42:36;;;;;;;3.70;3.40;;;;;;;;;;5031631;28;20184;-78
2023/12/21 13:45:05;;;;;;;1.30;1.20;;;;;;;;;;5015398;28;20269;-78
2023/12/21 13:47:32;;;;;;;0.60;0.60;;;;;;;;;;5018719;28;20182;-78
2023/12/21 13:49:58;;;;;;;3.80;3.47;;;;;;;;;;5026247;28;20188;-77
2023/12/21 13:52:24;;;;;;;2.77;2.53;;;;;;;;;;5040940;28;20202;-79
2023/12/21 13:54:49;;;;;;;1.60;1.50;;;;;;;;;;5029049;28;20268;-76
2023/12/21 13:57:16;;;;;;;4.00;3.60;;;;;;;;;;5035392;28;20170;-78
2023/12/21 13:59:41;;;;;;;1.20;1.10;;;;;;;;;;5026437;28;20252;-78
2023/12/21 14:02:07;;;;;;;9.63;7.77;;;;;;;;;;5033762;28;20206;-78
2023/12/21 14:04:33;;;;;;;3.97;3.30;;;;;;;;;;5020008;28;20177;-77
2023/12/21 14:06:58;;;;;;;0.80;0.80;;;;;;;;;;5033252;28;20185;-76
2023/12/21 14:09:24;;;;;;;4.07;3.47;;;;;;;;;;5033524;28;20181;-78
2023/12/21 14:11:49;;;;;;;1.93;1.73;;;;;;;;;;5035325;28;20190;-78
2023/12/21 14:14:14;;;;;;;2.60;2.40;;;;;;;;;;5024149;28;20286;-78
2023/12/21 14:16:39;;;;;;;2.20;2.10;;;;;;;;;;5029852;28;20248;-78
2023/12/21 14:19:04;;;;;;;1.13;1.03;;;;;;;;;;5028307;28;20180;-79
2023/12/21 14:21:30;;;;;;;6.90;6.33;;;;;;;;;;5017167;28;20180;-78
2023/12/21 14:23:55;;;;;;;1.10;1.00;;;;;;;;;;5019130;28;20204;-79
2023/12/21 14:26:21;;;;;;;2.30;2.10;;;;;;;;;;5029824;28;20182;-78
2023/12/21 14:28:46;;;;;;;1.40;1.30;;;;;;;;;;5016000;28;20217;-78
2023/12/21 14:31:11;;;;;;;1.00;1.00;;;;;;;;;;5029622;28;20175;-78
2023/12/21 14:33:36;;;;;;;0.70;0.70;;;;;;;;;;5020791;28;20260;-77